Time;durP1;ratioP1;P1;durP2;ratioP2;P2;SDS_P1;SDS_P2;PMS_P1;PMS_P2;Temp;Humidity;BMP_temperature;BMP_pressure;BME280_temperature;BME280_humidity;BME280_pressure;Samples;Min_cycle;Max_cycle;Signal;HPM_P1;HPM_P2
2021/11/15 00:02:45;;;;;;;2.10;0.22;;;;;;;;;;5033973;28;20044;-75
2021/11/15 00:05:11;;;;;;;1.65;0.35;;;;;;;;;;4961543;28;20075;-72
2021/11/15 00:07:37;;;;;;;1.55;0.20;;;;;;;;;;4973077;28;20081;-74
2021/11/15 00:10:03;;;;;;;1.17;0.35;;;;;;;;;;4973110;28;20038;-74
2021/11/15 00:12:29;;;;;;;2.55;0.43;;;;;;;;;;4973150;28;20034;-73
2021/11/15 00:14:56;;;;;;;0.88;0.22;;;;;;;;;;4972983;28;20027;-75
2021/11/15 00:17:33;;;;;;;2.40;0.30;;;;;;;;;;4956946;28;20023;-72
2021/11/15 00:19:59;;;;;;;2.90;0.40;;;;;;;;;;4973058;28;20106;-74
2021/11/15 00:22:25;;;;;;;2.08;0.20;;;;;;;;;;4957084;28;20035;-73
2021/11/15 00:25:09;;;;;;;1.23;0.22;;;;;;;;;;4956828;28;20023;-72
2021/11/15 00:27:34;;;;;;;1.65;0.30;;;;;;;;;;4972893;28;20099;-74
2021/11/15 00:30:03;;;;;;;1.23;0.30;;;;;;;;;;4973556;28;20023;-73
2021/11/15 00:32:46;;;;;;;4.43;0.50;;;;;;;;;;4976791;28;20036;-74
2021/11/15 00:35:13;;;;;;;1.75;0.55;;;;;;;;;;4976694;28;20434;-72
2021/11/15 00:37:47;;;;;;;1.95;0.30;;;;;;;;;;4976623;28;20019;-73
2021/11/15 00:40:32;;;;;;;1.88;0.55;;;;;;;;;;4976609;28;20027;-74
2021/11/15 00:42:58;;;;;;;1.77;0.40;;;;;;;;;;5038795;28;20053;-73
2021/11/15 00:45:51;;;;;;;1.38;0.20;;;;;;;;;;5036121;28;20076;-74
2021/11/15 00:48:55;;;;;;;0.73;0.25;;;;;;;;;;5037342;28;20148;-73
2021/11/15 00:51:30;;;;;;;1.70;0.55;;;;;;;;;;4976363;28;20035;-72
2021/11/15 00:53:57;;;;;;;1.08;0.25;;;;;;;;;;4976301;28;20536;-74
2021/11/15 00:56:24;;;;;;;1.83;0.65;;;;;;;;;;4960089;28;20034;-74
2021/11/15 00:58:49;;;;;;;1.77;0.35;;;;;;;;;;4976262;28;20098;-72
2021/11/15 01:01:31;;;;;;;2.60;0.60;;;;;;;;;;4976285;28;20026;-74
2021/11/15 01:03:56;;;;;;;0.38;0.35;;;;;;;;;;4976108;28;20026;-73
2021/11/15 01:06:22;;;;;;;2.50;0.55;;;;;;;;;;4968968;28;20055;-74
2021/11/15 01:08:47;;;;;;;0.50;0.20;;;;;;;;;;4976045;28;20050;-73
2021/11/15 01:11:18;;;;;;;0.90;0.23;;;;;;;;;;4960012;28;20189;-71
2021/11/15 01:14:01;;;;;;;1.55;0.57;;;;;;;;;;4976002;28;20256;-74
2021/11/15 01:16:29;;;;;;;1.80;0.40;;;;;;;;;;4975910;28;20058;-73
2021/11/15 01:19:14;;;;;;;1.08;0.10;;;;;;;;;;4975872;28;20022;-73
2021/11/15 01:21:59;;;;;;;0.88;0.30;;;;;;;;;;4975773;28;20398;-74
2021/11/15 01:27:13;;;;;;;1.35;0.28;;;;;;;;;;5013717;28;19935;-72
2021/11/15 01:29:48;;;;;;;1.67;0.40;;;;;;;;;;5036586;28;20028;-74
2021/11/15 01:32:25;;;;;;;2.55;0.63;;;;;;;;;;5036571;28;20025;-73
2021/11/15 01:34:53;;;;;;;0.85;0.17;;;;;;;;;;5036582;28;20013;-73
2021/11/15 01:37:19;;;;;;;2.72;0.30;;;;;;;;;;5036596;28;20067;-74
2021/11/15 01:39:45;;;;;;;1.63;0.30;;;;;;;;;;5051160;28;20376;-72
2021/11/15 01:42:11;;;;;;;2.22;0.50;;;;;;;;;;5055943;28;20104;-73
2021/11/15 01:44:53;;;;;;;1.88;0.32;;;;;;;;;;5054929;28;20013;-73
2021/11/15 01:47:21;;;;;;;1.02;0.30;;;;;;;;;;5056256;28;20017;-73
2021/11/15 01:50:18;;;;;;;3.33;0.50;;;;;;;;;;5056128;28;20035;-74
2021/11/15 01:52:44;;;;;;;1.30;0.28;;;;;;;;;;5014199;28;20040;-72
2021/11/15 01:55:11;;;;;;;2.10;0.52;;;;;;;;;;5014115;28;20059;-74
2021/11/15 01:57:48;;;;;;;3.13;0.47;;;;;;;;;;5014094;28;20389;-72
2021/11/15 02:00:15;;;;;;;2.15;0.65;;;;;;;;;;5014288;28;20696;-73
2021/11/15 02:02:42;;;;;;;0.65;0.10;;;;;;;;;;4997745;28;20025;-73
2021/11/15 02:05:09;;;;;;;2.92;0.30;;;;;;;;;;5014831;28;20026;-72
2021/11/15 02:07:34;;;;;;;2.70;0.28;;;;;;;;;;5013854;28;20057;-74
2021/11/15 02:10:03;;;;;;;0.28;0.20;;;;;;;;;;5013722;28;20034;-72
2021/11/15 02:12:47;;;;;;;2.95;0.40;;;;;;;;;;5013897;28;20193;-73
2021/11/15 02:15:14;;;;;;;1.10;0.20;;;;;;;;;;4997368;28;20060;-72
2021/11/15 02:17:48;;;;;;;1.08;0.40;;;;;;;;;;5013871;28;20022;-73
2021/11/15 02:20:18;;;;;;;1.23;0.32;;;;;;;;;;4997759;28;20025;-74
2021/11/15 02:22:46;;;;;;;3.50;0.47;;;;;;;;;;5013721;28;20033;-71
2021/11/15 02:25:45;;;;;;;3.53;0.57;;;;;;;;;;5013475;28;20029;-73
2021/11/15 02:28:22;;;;;;;0.35;0.32;;;;;;;;;;4996273;28;20041;-71
2021/11/15 02:30:56;;;;;;;4.07;0.50;;;;;;;;;;4997066;28;20029;-73
2021/11/15 02:33:31;;;;;;;;;;;;;;;;;;5013886;28;20068;-73
2021/11/15 02:35:57;;;;;;;0.80;0.40;;;;;;;;;;4998340;28;19940;-74
2021/11/15 02:38:24;;;;;;;1.75;0.30;;;;;;;;;;5015630;28;20022;-73
2021/11/15 02:41:18;;;;;;;1.90;0.43;;;;;;;;;;5013617;28;20022;-71
2021/11/15 02:43:52;;;;;;;3.72;0.43;;;;;;;;;;5013412;28;20056;-74
2021/11/15 02:46:27;;;;;;;2.33;0.20;;;;;;;;;;4996949;28;20025;-73
2021/11/15 02:49:03;;;;;;;1.52;0.20;;;;;;;;;;5013560;28;20081;-74
2021/11/15 02:51:38;;;;;;;0.30;0.10;;;;;;;;;;5012929;28;20042;-71
2021/11/15 02:54:24;;;;;;;2.80;0.38;;;;;;;;;;4996006;28;20104;-73
2021/11/15 02:56:51;;;;;;;0.77;0.20;;;;;;;;;;4996908;28;20502;-71
2021/11/15 02:59:27;;;;;;;2.88;1.08;;;;;;;;;;4996554;28;20053;-73
2021/11/15 03:01:53;;;;;;;0.88;0.30;;;;;;;;;;5013069;28;20113;-73
2021/11/15 03:04:19;;;;;;;0.75;0.20;;;;;;;;;;5036762;28;20033;-71
2021/11/15 03:06:44;;;;;;;2.30;0.30;;;;;;;;;;5053073;28;20139;-74
2021/11/15 03:09:10;;;;;;;1.47;0.33;;;;;;;;;;5054545;28;20456;-73
2021/11/15 03:12:04;;;;;;;1.38;0.20;;;;;;;;;;5054353;28;20331;-73
2021/11/15 03:14:30;;;;;;;0.73;0.30;;;;;;;;;;4996387;28;20025;-73
2021/11/15 03:17:04;;;;;;;1.40;0.30;;;;;;;;;;5012765;28;20026;-72
2021/11/15 03:19:32;;;;;;;1.88;0.30;;;;;;;;;;5012838;28;20471;-73
2021/11/15 03:21:57;;;;;;;1.45;0.40;;;;;;;;;;5012606;28;20038;-72
2021/11/15 03:24:24;;;;;;;3.42;1.02;;;;;;;;;;5012625;28;20026;-73
2021/11/15 03:26:59;;;;;;;1.60;0.40;;;;;;;;;;5012623;28;20026;-73
2021/11/15 03:32:26;;;;;;;1.48;0.35;;;;;;;;;;5012471;28;20045;-73
2021/11/15 03:34:53;;;;;;;1.30;0.20;;;;;;;;;;5012565;28;20018;-72
2021/11/15 03:37:29;;;;;;;2.45;0.60;;;;;;;;;;5013756;28;20156;-74
2021/11/15 03:39:54;;;;;;;1.73;0.20;;;;;;;;;;5012546;28;20021;-72
2021/11/15 03:42:35;;;;;;;2.28;0.38;;;;;;;;;;5012363;28;20022;-72
2021/11/15 03:45:01;;;;;;;1.75;0.38;;;;;;;;;;5012709;28;20076;-73
2021/11/15 03:47:38;;;;;;;1.60;0.40;;;;;;;;;;5012405;28;20076;-72
2021/11/15 03:50:07;;;;;;;1.95;0.20;;;;;;;;;;4995802;28;20057;-74
2021/11/15 03:52:37;;;;;;;0.80;0.20;;;;;;;;;;5053768;28;20074;-71
2021/11/15 03:55:14;;;;;;;3.40;0.70;;;;;;;;;;5053980;28;20449;-73
2021/11/15 03:57:45;;;;;;;3.55;0.30;;;;;;;;;;5054044;28;20017;-73
2021/11/15 04:00:14;;;;;;;2.10;0.52;;;;;;;;;;5053837;28;20440;-72
2021/11/15 04:02:41;;;;;;;0.93;0.45;;;;;;;;;;5054142;28;20452;-73
2021/11/15 04:05:29;;;;;;;1.15;0.10;;;;;;;;;;5055382;28;20056;-72
2021/11/15 04:07:55;;;;;;;1.73;0.40;;;;;;;;;;5057803;28;20120;-74
2021/11/15 04:10:21;;;;;;;0.43;0.10;;;;;;;;;;5057041;28;20111;-72
2021/11/15 04:12:56;;;;;;;0.95;0.20;;;;;;;;;;5057822;28;20025;-73
2021/11/15 04:15:24;;;;;;;1.63;0.38;;;;;;;;;;5056707;28;20013;-74
2021/11/15 04:18:14;;;;;;;1.33;0.30;;;;;;;;;;5057768;28;20017;-71
2021/11/15 04:20:50;;;;;;;1.73;0.52;;;;;;;;;;5057894;28;20017;-73
2021/11/15 04:23:17;;;;;;;1.48;0.20;;;;;;;;;;5057747;28;20036;-71
2021/11/15 04:25:44;;;;;;;0.85;0.28;;;;;;;;;;5057722;28;20028;-74
2021/11/15 04:28:19;;;;;;;2.13;0.60;;;;;;;;;;5057921;28;20032;-73
2021/11/15 04:31:03;;;;;;;2.10;0.30;;;;;;;;;;5057591;28;20063;-73
2021/11/15 04:33:41;;;;;;;1.23;0.50;;;;;;;;;;5057664;28;20135;-72
2021/11/15 04:36:07;;;;;;;1.27;0.22;;;;;;;;;;5057342;28;20032;-73
2021/11/15 04:38:41;;;;;;;0.47;0.20;;;;;;;;;;5056481;28;20013;-73
2021/11/15 04:41:25;;;;;;;1.63;0.20;;;;;;;;;;5057377;28;20028;-72
2021/11/15 04:44:01;;;;;;;3.15;0.35;;;;;;;;;;5057375;28;20013;-72
2021/11/15 04:46:37;;;;;;;0.50;0.15;;;;;;;;;;5056129;28;20338;-74
2021/11/15 04:49:17;;;;;;;1.88;0.20;;;;;;;;;;5057245;28;20028;-73
2021/11/15 04:51:55;;;;;;;1.45;0.10;;;;;;;;;;5057177;28;20095;-72
2021/11/15 04:54:38;;;;;;;2.70;0.28;;;;;;;;;;5057230;28;20410;-73
2021/11/15 04:57:17;;;;;;;3.28;0.47;;;;;;;;;;5056963;28;20549;-72
2021/11/15 04:59:45;;;;;;;2.03;0.30;;;;;;;;;;5056120;28;20103;-73
2021/11/15 05:02:35;;;;;;;1.83;0.43;;;;;;;;;;5056892;28;20429;-72
2021/11/15 05:05:00;;;;;;;0.55;0.20;;;;;;;;;;5057063;28;20028;-74
2021/11/15 05:07:25;;;;;;;2.03;0.43;;;;;;;;;;5055475;28;20048;-71
2021/11/15 05:09:51;;;;;;;1.70;0.40;;;;;;;;;;5056720;28;20110;-73
2021/11/15 05:12:23;;;;;;;2.00;0.20;;;;;;;;;;5055431;28;20028;-72
2021/11/15 05:14:49;;;;;;;1.05;0.20;;;;;;;;;;5056639;28;20717;-72
2021/11/15 05:17:21;;;;;;;1.30;0.30;;;;;;;;;;5054772;28;20025;-73
2021/11/15 05:19:56;;;;;;;2.83;0.40;;;;;;;;;;5056682;28;20013;-70
2021/11/15 05:22:30;;;;;;;3.70;0.30;;;;;;;;;;5056724;28;20091;-73
2021/11/15 05:24:56;;;;;;;1.52;0.25;;;;;;;;;;5055573;28;20363;-72
2021/11/15 05:27:30;;;;;;;2.53;0.38;;;;;;;;;;5056366;28;20025;-72
2021/11/15 05:29:57;;;;;;;1.90;0.28;;;;;;;;;;5056413;28;20075;-73
2021/11/15 05:32:25;;;;;;;3.33;0.50;;;;;;;;;;5056399;28;20326;-71
2021/11/15 05:34:50;;;;;;;1.35;0.15;;;;;;;;;;5056276;28;20096;-73
2021/11/15 05:37:16;;;;;;;1.00;0.45;;;;;;;;;;5056443;28;20040;-73
2021/11/15 05:39:42;;;;;;;3.80;0.60;;;;;;;;;;5056259;28;20062;-71
2021/11/15 05:42:07;;;;;;;2.95;0.35;;;;;;;;;;5056130;28;20033;-73
2021/11/15 05:44:33;;;;;;;1.85;0.30;;;;;;;;;;5054980;28;20071;-71
2021/11/15 05:47:04;;;;;;;1.88;0.20;;;;;;;;;;5054954;28;20017;-72
2021/11/15 05:49:30;;;;;;;1.90;0.32;;;;;;;;;;5054950;28;20021;-72
2021/11/15 05:51:55;;;;;;;1.75;0.30;;;;;;;;;;5054681;28;20112;-71
2021/11/15 05:54:23;;;;;;;1.45;0.30;;;;;;;;;;5054956;28;20013;-73
2021/11/15 05:56:48;;;;;;;1.23;0.20;;;;;;;;;;5056033;28;20050;-71
2021/11/15 05:59:23;;;;;;;1.58;0.38;;;;;;;;;;5055920;28;20021;-73
2021/11/15 06:01:56;;;;;;;2.38;0.20;;;;;;;;;;5055894;28;20017;-72
2021/11/15 06:04:34;;;;;;;2.60;0.50;;;;;;;;;;5055777;28;20028;-72
2021/11/15 06:06:59;;;;;;;4.03;0.43;;;;;;;;;;5053033;28;20044;-73
2021/11/15 06:09:24;;;;;;;3.43;0.30;;;;;;;;;;5055702;28;20017;-71
2021/11/15 06:11:59;;;;;;;2.53;0.57;;;;;;;;;;5054225;28;20664;-73
2021/11/15 06:14:24;;;;;;;;;;;;;;;;;;5056139;28;20246;-71
2021/11/15 06:16:51;;;;;;;1.55;0.52;;;;;;;;;;5055236;28;20285;-72
2021/11/15 06:19:18;;;;;;;5.20;0.75;;;;;;;;;;5055746;28;20063;-73
2021/11/15 06:21:45;;;;;;;1.45;0.30;;;;;;;;;;5054599;28;20029;-71
2021/11/15 06:24:12;;;;;;;1.55;0.30;;;;;;;;;;5055012;28;20031;-72
2021/11/15 06:27:03;;;;;;;4.72;0.65;;;;;;;;;;5055050;28;20025;-74
2021/11/15 06:29:53;;;;;;;2.60;0.30;;;;;;;;;;4976930;28;20089;-74
2021/11/15 06:32:20;;;;;;;1.55;0.15;;;;;;;;;;4993989;28;20030;-74
2021/11/15 06:34:47;;;;;;;2.67;0.40;;;;;;;;;;4994209;28;20026;-73
2021/11/15 06:37:13;;;;;;;1.85;0.45;;;;;;;;;;4979131;28;20038;-74
2021/11/15 06:39:40;;;;;;;2.63;0.40;;;;;;;;;;4993886;28;20478;-73
2021/11/15 06:42:15;;;;;;;1.70;0.30;;;;;;;;;;4993900;28;20026;-74
2021/11/15 06:44:51;;;;;;;3.30;0.82;;;;;;;;;;4993969;28;20027;-74
2021/11/15 06:47:16;;;;;;;1.70;0.30;;;;;;;;;;4993853;28;20042;-73
2021/11/15 06:49:54;;;;;;;1.95;0.30;;;;;;;;;;4993711;28;20480;-74
2021/11/15 06:52:32;;;;;;;2.60;0.82;;;;;;;;;;4977265;28;20586;-73
2021/11/15 06:55:28;;;;;;;2.08;0.40;;;;;;;;;;4993697;28;20052;-75
2021/11/15 07:01:13;;;;;;;0.68;0.15;;;;;;;;;;4897215;29;20113;-73
2021/11/15 07:03:40;;;;;;;2.17;0.30;;;;;;;;;;4898212;29;20029;-74
2021/11/15 07:06:32;;;;;;;1.55;0.40;;;;;;;;;;4889656;29;20079;-74
2021/11/15 07:08:58;;;;;;;1.13;0.15;;;;;;;;;;4916389;29;20071;-74
2021/11/15 07:14:50;;;;;;;3.08;0.32;;;;;;;;;;4935399;29;20070;-74
2021/11/15 07:17:16;;;;;;;3.05;0.60;;;;;;;;;;4935518;29;20374;-73
2021/11/15 07:22:51;;;;;;;2.50;0.57;;;;;;;;;;4935619;29;20123;-73
2021/11/15 07:25:19;;;;;;;2.70;0.57;;;;;;;;;;4919390;29;20028;-75
2021/11/15 07:27:47;;;;;;;4.28;0.20;;;;;;;;;;4935155;29;20046;-74
2021/11/15 07:30:29;;;;;;;2.13;0.30;;;;;;;;;;4919370;29;20024;-74
2021/11/15 07:33:03;;;;;;;2.92;0.40;;;;;;;;;;4935131;29;20118;-74
2021/11/15 07:35:48;;;;;;;;;;;;;;;;;;4954587;29;20102;-73
2021/11/15 07:38:23;;;;;;;3.28;0.20;;;;;;;;;;4979336;28;20346;-75
2021/11/15 07:41:08;;;;;;;5.10;0.57;;;;;;;;;;4992613;28;20030;-73
2021/11/15 07:43:34;;;;;;;1.90;0.30;;;;;;;;;;4992818;28;20022;-75
2021/11/15 07:46:09;;;;;;;0.88;0.10;;;;;;;;;;4992678;28;20053;-73
2021/11/15 07:48:49;;;;;;;1.10;0.17;;;;;;;;;;4992947;28;20022;-75
2021/11/15 07:51:35;;;;;;;0.95;0.40;;;;;;;;;;5016488;28;20464;-73
2021/11/15 07:54:07;;;;;;;0.90;0.20;;;;;;;;;;5041237;28;20032;-74
2021/11/15 07:56:33;;;;;;;1.77;0.28;;;;;;;;;;5054520;28;20021;-73
2021/11/15 07:59:09;;;;;;;1.40;0.28;;;;;;;;;;5054941;28;20072;-73
2021/11/15 08:01:35;;;;;;;1.77;0.20;;;;;;;;;;5053927;28;20465;-73
2021/11/15 08:04:02;;;;;;;0.80;0.20;;;;;;;;;;5053993;28;20025;-72
2021/11/15 08:06:33;;;;;;;1.35;0.25;;;;;;;;;;5053965;28;20025;-71
2021/11/15 08:08:58;;;;;;;3.20;0.38;;;;;;;;;;5053887;28;20041;-72
2021/11/15 08:11:29;;;;;;;3.13;0.20;;;;;;;;;;5053729;28;20487;-70
2021/11/15 08:13:54;;;;;;;2.42;0.55;;;;;;;;;;5053822;28;20028;-73
2021/11/15 08:16:20;;;;;;;0.93;0.30;;;;;;;;;;5053976;28;20021;-72
2021/11/15 08:18:55;;;;;;;1.38;0.30;;;;;;;;;;5052815;28;20021;-70
2021/11/15 08:21:30;;;;;;;1.45;0.10;;;;;;;;;;5053891;28;20021;-73
2021/11/15 08:24:08;;;;;;;1.60;0.20;;;;;;;;;;5053753;28;20024;-71
2021/11/15 08:26:36;;;;;;;2.55;0.20;;;;;;;;;;5052927;28;20076;-72
2021/11/15 08:29:08;;;;;;;0.60;0.20;;;;;;;;;;5053680;28;20506;-71
2021/11/15 08:31:46;;;;;;;1.98;0.22;;;;;;;;;;5052425;28;20456;-71
2021/11/15 08:34:31;;;;;;;1.63;0.40;;;;;;;;;;5052370;28;20626;-72
2021/11/15 08:36:57;;;;;;;2.05;0.30;;;;;;;;;;5053564;28;20013;-71
2021/11/15 08:39:42;;;;;;;3.08;0.52;;;;;;;;;;5053798;28;20027;-72
2021/11/15 08:42:27;;;;;;;1.85;0.35;;;;;;;;;;5052202;28;20025;-70
2021/11/15 08:44:56;;;;;;;3.55;0.35;;;;;;;;;;5053560;28;20028;-71
2021/11/15 08:47:22;;;;;;;1.77;0.30;;;;;;;;;;5052261;28;20063;-71
2021/11/15 08:49:54;;;;;;;3.08;0.50;;;;;;;;;;5053406;28;20029;-72
2021/11/15 08:52:22;;;;;;;2.78;0.25;;;;;;;;;;5054865;28;20032;-72
2021/11/15 08:55:08;;;;;;;1.60;0.20;;;;;;;;;;5057084;28;20022;-70
2021/11/15 08:57:50;;;;;;;1.80;0.40;;;;;;;;;;5057250;28;20136;-73
2021/11/15 09:00:15;;;;;;;1.73;0.30;;;;;;;;;;5057300;28;20090;-70
2021/11/15 09:03:13;;;;;;;1.58;0.20;;;;;;;;;;5057169;28;20052;-72
2021/11/15 09:05:41;;;;;;;1.65;0.10;;;;;;;;;;5057162;28;20028;-70
2021/11/15 09:08:06;;;;;;;1.90;0.32;;;;;;;;;;5056731;28;20400;-72
2021/11/15 09:10:36;;;;;;;4.50;0.67;;;;;;;;;;5055774;28;20021;-71
2021/11/15 09:13:28;;;;;;;2.38;0.43;;;;;;;;;;5055691;28;20040;-72
2021/11/15 09:15:54;;;;;;;1.33;0.20;;;;;;;;;;4995488;28;20081;-70
2021/11/15 09:18:44;;;;;;;2.22;0.75;;;;;;;;;;4995633;28;20414;-72
2021/11/15 09:21:18;;;;;;;4.22;0.30;;;;;;;;;;4995396;28;20105;-71
2021/11/15 09:23:53;;;;;;;2.75;0.28;;;;;;;;;;4979143;28;20023;-73
2021/11/15 09:26:26;;;;;;;0.63;0.30;;;;;;;;;;4995328;28;20030;-71
2021/11/15 09:29:24;;;;;;;2.10;0.20;;;;;;;;;;4995152;28;20026;-72
2021/11/15 09:31:50;;;;;;;1.58;0.20;;;;;;;;;;4982774;28;20027;-70
2021/11/15 09:34:55;;;;;;;4.32;0.57;;;;;;;;;;4988269;28;20035;-72
2021/11/15 09:37:20;;;;;;;1.70;0.30;;;;;;;;;;4982855;28;20036;-71
2021/11/15 09:39:50;;;;;;;4.15;1.02;;;;;;;;;;4983095;28;20027;-72
2021/11/15 09:42:25;;;;;;;2.40;0.65;;;;;;;;;;4975500;28;20026;-72
2021/11/15 09:44:52;;;;;;;1.88;0.40;;;;;;;;;;4975571;28;20109;-72
2021/11/15 09:47:19;;;;;;;4.35;1.05;;;;;;;;;;4987761;28;20074;-73
2021/11/15 09:49:44;;;;;;;1.98;0.28;;;;;;;;;;4976478;28;20027;-70
2021/11/15 09:52:15;;;;;;;1.40;0.40;;;;;;;;;;4998618;28;20055;-72
2021/11/15 09:54:43;;;;;;;2.15;0.60;;;;;;;;;;5056227;28;20028;-72
2021/11/15 09:57:12;;;;;;;2.70;0.38;;;;;;;;;;5056082;28;20053;-71
2021/11/15 10:00:11;;;;;;;1.42;0.40;;;;;;;;;;5056076;28;20492;-72
2021/11/15 10:02:37;;;;;;;1.23;0.25;;;;;;;;;;5036070;28;20025;-70
2021/11/15 10:05:11;;;;;;;1.50;0.28;;;;;;;;;;5055814;28;20100;-72
2021/11/15 10:07:48;;;;;;;1.98;0.30;;;;;;;;;;5045489;28;20052;-72
2021/11/15 10:10:44;;;;;;;2.97;0.40;;;;;;;;;;5055656;28;20029;-72
2021/11/15 10:13:18;;;;;;;2.58;0.43;;;;;;;;;;5055683;28;20025;-71
2021/11/15 10:15:46;;;;;;;0.90;0.22;;;;;;;;;;5055821;28;20468;-72
2021/11/15 10:18:14;;;;;;;1.25;0.40;;;;;;;;;;5055618;28;20024;-72
2021/11/15 10:20:53;;;;;;;1.25;0.40;;;;;;;;;;5054380;28;20013;-70
2021/11/15 10:23:44;;;;;;;2.35;0.30;;;;;;;;;;5054606;28;20456;-73
2021/11/15 10:29:38;;;;;;;1.27;0.20;;;;;;;;;;5033527;28;20022;-71
2021/11/15 10:32:22;;;;;;;2.42;0.40;;;;;;;;;;5033507;28;20032;-72
2021/11/15 10:34:49;;;;;;;3.03;0.30;;;;;;;;;;5033253;28;20144;-72
2021/11/15 10:37:16;;;;;;;2.95;0.65;;;;;;;;;;5033447;28;20057;-71
2021/11/15 10:39:43;;;;;;;2.42;0.20;;;;;;;;;;5033138;28;20029;-71
2021/11/15 10:42:12;;;;;;;3.17;0.57;;;;;;;;;;5033009;28;20473;-70
2021/11/15 10:44:50;;;;;;;2.13;0.43;;;;;;;;;;5033409;28;20334;-72
2021/11/15 10:47:48;;;;;;;1.27;0.30;;;;;;;;;;5033299;28;20037;-71
2021/11/15 10:50:24;;;;;;;0.73;0.10;;;;;;;;;;4955020;29;20520;-73
2021/11/15 10:53:17;;;;;;;2.20;0.65;;;;;;;;;;4954768;29;20028;-70
2021/11/15 10:56:04;;;;;;;2.05;0.30;;;;;;;;;;4955118;29;20035;-72
2021/11/15 10:58:32;;;;;;;3.53;0.75;;;;;;;;;;4938737;29;20020;-70
2021/11/15 11:00:59;;;;;;;1.88;0.40;;;;;;;;;;4955109;29;20035;-72
2021/11/15 11:03:26;;;;;;;3.70;0.65;;;;;;;;;;4954886;29;20123;-71
2021/11/15 11:06:04;;;;;;;2.33;0.28;;;;;;;;;;4962499;28;20114;-71
2021/11/15 11:08:31;;;;;;;1.70;0.40;;;;;;;;;;4970535;28;20057;-72
2021/11/15 11:11:06;;;;;;;1.00;0.20;;;;;;;;;;4973956;28;20054;-70
2021/11/15 11:13:55;;;;;;;1.13;0.32;;;;;;;;;;4973463;28;20038;-72
2021/11/15 11:16:42;;;;;;;1.30;0.35;;;;;;;;;;4973880;28;20374;-70
2021/11/15 11:19:34;;;;;;;4.13;0.35;;;;;;;;;;4973890;28;20106;-72
2021/11/15 11:27:45;;;;;;;2.03;0.45;;;;;;;;;;5054763;28;20025;-71
2021/11/15 11:30:18;;;;;;;1.65;0.20;;;;;;;;;;5053062;28;20033;-72
2021/11/15 11:32:46;;;;;;;3.30;0.40;;;;;;;;;;5053004;28;20025;-72
2021/11/15 11:35:26;;;;;;;1.25;0.35;;;;;;;;;;5052983;28;20017;-73
2021/11/15 11:37:54;;;;;;;3.47;0.30;;;;;;;;;;5054282;28;20060;-71
2021/11/15 11:40:40;;;;;;;1.92;0.20;;;;;;;;;;5054124;28;20016;-72
2021/11/15 11:43:16;;;;;;;1.50;0.30;;;;;;;;;;5052961;28;20479;-71
2021/11/15 11:45:44;;;;;;;1.77;0.30;;;;;;;;;;5054203;28;20037;-72
2021/11/15 11:48:27;;;;;;;1.90;0.30;;;;;;;;;;5054088;28;20070;-73
2021/11/15 11:50:57;;;;;;;0.68;0.10;;;;;;;;;;5054064;28;20056;-72
2021/11/15 11:53:24;;;;;;;1.58;0.22;;;;;;;;;;5054574;28;20028;-72
2021/11/15 11:55:50;;;;;;;2.25;0.30;;;;;;;;;;5052602;28;20096;-70
2021/11/15 11:58:55;;;;;;;2.92;0.85;;;;;;;;;;5054341;28;20049;-73
2021/11/15 12:01:23;;;;;;;1.25;0.38;;;;;;;;;;5054070;28;20051;-71
2021/11/15 12:04:08;;;;;;;2.78;0.20;;;;;;;;;;5053030;28;20059;-72
2021/11/15 12:06:40;;;;;;;2.45;0.40;;;;;;;;;;5052732;28;20024;-70
2021/11/15 12:09:06;;;;;;;1.50;0.35;;;;;;;;;;5052964;28;20049;-74
2021/11/15 12:11:40;;;;;;;3.05;0.30;;;;;;;;;;5052562;28;20415;-72
2021/11/15 12:14:07;;;;;;;2.03;0.40;;;;;;;;;;5053421;28;20051;-71
2021/11/15 12:16:51;;;;;;;2.60;0.68;;;;;;;;;;5053521;28;20028;-69
2021/11/15 12:19:17;;;;;;;1.58;0.30;;;;;;;;;;5053716;28;20013;-70
2021/11/15 12:22:17;;;;;;;0.63;0.20;;;;;;;;;;5052357;28;20070;-72
2021/11/15 12:25:02;;;;;;;1.60;0.40;;;;;;;;;;5011532;28;20061;-71
2021/11/15 12:27:47;;;;;;;2.90;0.57;;;;;;;;;;5014998;28;20045;-71
2021/11/15 12:33:17;;;;;;;2.10;0.40;;;;;;;;;;5015246;28;20156;-70
2021/11/15 12:36:02;;;;;;;2.70;0.68;;;;;;;;;;5015458;28;20218;-71
2021/11/15 12:38:40;;;;;;;2.28;0.60;;;;;;;;;;5005008;28;20596;-71
2021/11/15 12:41:14;;;;;;;1.65;0.20;;;;;;;;;;5015418;28;20037;-71
2021/11/15 12:43:39;;;;;;;3.00;0.50;;;;;;;;;;5015549;28;20033;-70
2021/11/15 12:46:10;;;;;;;2.50;0.40;;;;;;;;;;4997462;28;20062;-71
2021/11/15 12:48:38;;;;;;;1.40;0.35;;;;;;;;;;4995692;28;20034;-71
2021/11/15 12:51:21;;;;;;;1.27;0.25;;;;;;;;;;4995727;28;20025;-70
2021/11/15 12:53:55;;;;;;;2.58;0.60;;;;;;;;;;4999418;28;20541;-71
2021/11/15 12:56:20;;;;;;;;;;;;;;;;;;5006443;28;20026;-70
2021/11/15 12:58:56;;;;;;;3.60;0.40;;;;;;;;;;5001877;28;19996;-70
2021/11/15 13:01:22;;;;;;;2.65;0.40;;;;;;;;;;5040996;28;20361;-71
2021/11/15 13:03:50;;;;;;;4.55;0.95;;;;;;;;;;5056446;28;20550;-69
2021/11/15 13:06:16;;;;;;;3.70;0.50;;;;;;;;;;5056251;28;20567;-70
2021/11/15 13:08:43;;;;;;;2.47;0.25;;;;;;;;;;5055472;28;20045;-71
2021/11/15 13:11:09;;;;;;;2.15;0.50;;;;;;;;;;5055350;28;20546;-69
2021/11/15 13:13:34;;;;;;;3.22;0.50;;;;;;;;;;5055068;28;20028;-71
2021/11/15 13:16:01;;;;;;;3.45;0.50;;;;;;;;;;5056391;28;20021;-70
2021/11/15 13:18:28;;;;;;;1.25;0.30;;;;;;;;;;5056405;28;20140;-70
2021/11/15 13:20:55;;;;;;;2.20;0.22;;;;;;;;;;5056037;28;20017;-71
2021/11/15 13:23:24;;;;;;;1.58;0.28;;;;;;;;;;5050936;28;20096;-70
2021/11/15 13:25:52;;;;;;;1.83;0.50;;;;;;;;;;5052865;28;20017;-71
2021/11/15 13:28:17;;;;;;;2.22;0.50;;;;;;;;;;5044686;28;20113;-71
2021/11/15 13:30:42;;;;;;;1.00;0.20;;;;;;;;;;5039164;28;20479;-70
2021/11/15 13:33:08;;;;;;;1.10;0.35;;;;;;;;;;5039779;28;20017;-70
2021/11/15 13:35:36;;;;;;;2.22;0.28;;;;;;;;;;5037676;28;20025;-70
2021/11/15 13:38:02;;;;;;;1.05;0.28;;;;;;;;;;5044448;28;20049;-70
2021/11/15 13:40:29;;;;;;;2.28;0.50;;;;;;;;;;5041719;28;20013;-71
2021/11/15 13:42:54;;;;;;;1.98;0.20;;;;;;;;;;5050351;28;20029;-69
2021/11/15 13:45:19;;;;;;;2.17;0.30;;;;;;;;;;5038740;28;20047;-69
2021/11/15 13:47:47;;;;;;;1.83;0.30;;;;;;;;;;5057351;28;20064;-70
2021/11/15 13:50:12;;;;;;;1.55;0.28;;;;;;;;;;5055809;28;20284;-70
2021/11/15 13:52:44;;;;;;;2.95;0.50;;;;;;;;;;5055402;28;20400;-70
2021/11/15 13:55:12;;;;;;;2.85;0.30;;;;;;;;;;5054415;28;20025;-69
2021/11/15 13:57:38;;;;;;;0.90;0.47;;;;;;;;;;5055116;28;20025;-69
2021/11/15 14:00:04;;;;;;;1.13;0.30;;;;;;;;;;5055324;28;20017;-70
2021/11/15 14:02:29;;;;;;;3.10;0.35;;;;;;;;;;5055093;28;20032;-70
2021/11/15 14:04:56;;;;;;;1.40;0.30;;;;;;;;;;5053678;28;20024;-69
2021/11/15 14:07:23;;;;;;;1.75;0.43;;;;;;;;;;5053875;28;20117;-68
2021/11/15 14:09:49;;;;;;;3.70;0.52;;;;;;;;;;5053625;28;20041;-69
2021/11/15 14:12:17;;;;;;;1.52;0.30;;;;;;;;;;5051721;28;20032;-69
2021/11/15 14:14:42;;;;;;;3.15;0.40;;;;;;;;;;5049999;28;20048;-68
2021/11/15 14:17:09;;;;;;;2.65;0.55;;;;;;;;;;5046270;28;20103;-71
2021/11/15 14:19:34;;;;;;;2.67;0.82;;;;;;;;;;5053683;28;20120;-67
2021/11/15 14:21:59;;;;;;;0.95;0.30;;;;;;;;;;5054004;28;20060;-69
2021/11/15 14:24:27;;;;;;;2.65;0.90;;;;;;;;;;5052661;28;20021;-69
2021/11/15 14:26:53;;;;;;;1.30;0.20;;;;;;;;;;5053713;28;20024;-67
2021/11/15 14:29:28;;;;;;;2.83;0.63;;;;;;;;;;5052252;28;20028;-69
2021/11/15 14:31:53;;;;;;;1.13;0.50;;;;;;;;;;5052906;28;20024;-68
2021/11/15 14:34:26;;;;;;;2.13;0.30;;;;;;;;;;5053027;28;20017;-70
2021/11/15 14:36:51;;;;;;;1.95;0.25;;;;;;;;;;5052006;28;20049;-68
2021/11/15 14:39:16;;;;;;;1.23;0.20;;;;;;;;;;5052999;28;20098;-69
2021/11/15 14:41:42;;;;;;;2.20;0.30;;;;;;;;;;5050221;28;20068;-70
2021/11/15 14:44:10;;;;;;;1.98;0.52;;;;;;;;;;5051587;28;20025;-70
2021/11/15 14:46:37;;;;;;;2.47;0.50;;;;;;;;;;5052599;28;20029;-71
2021/11/15 14:49:02;;;;;;;3.45;0.50;;;;;;;;;;5050181;28;20519;-68
2021/11/15 14:51:43;;;;;;;1.88;0.28;;;;;;;;;;5050881;28;20109;-73
2021/11/15 14:54:08;;;;;;;1.25;0.50;;;;;;;;;;5053919;28;20052;-69
2021/11/15 14:56:34;;;;;;;2.28;0.50;;;;;;;;;;5051926;28;20087;-70
2021/11/15 14:59:00;;;;;;;3.20;0.80;;;;;;;;;;5050374;28;20021;-69
2021/11/15 15:01:25;;;;;;;2.90;0.80;;;;;;;;;;5059473;28;20021;-68
2021/11/15 15:03:51;;;;;;;2.17;0.30;;;;;;;;;;5054383;28;20071;-72
2021/11/15 15:06:19;;;;;;;1.95;0.70;;;;;;;;;;5050416;28;20380;-69
2021/11/15 15:08:44;;;;;;;3.42;0.38;;;;;;;;;;5043901;28;20444;-71
2021/11/15 15:11:09;;;;;;;2.28;0.40;;;;;;;;;;5045423;28;20172;-69
2021/11/15 15:13:37;;;;;;;2.20;0.50;;;;;;;;;;5043038;28;20021;-67
2021/11/15 15:16:02;;;;;;;3.17;0.75;;;;;;;;;;5043995;28;20736;-67
2021/11/15 15:18:32;;;;;;;2.50;0.45;;;;;;;;;;5051946;28;20017;-69
2021/11/15 15:21:00;;;;;;;3.85;0.73;;;;;;;;;;5048544;28;20013;-68
2021/11/15 15:23:25;;;;;;;1.90;0.40;;;;;;;;;;5048823;28;20070;-69
2021/11/15 15:25:51;;;;;;;3.05;0.57;;;;;;;;;;5047825;28;20021;-67
2021/11/15 15:28:16;;;;;;;2.80;0.70;;;;;;;;;;5047865;28;20021;-70
2021/11/15 15:30:43;;;;;;;1.85;0.40;;;;;;;;;;5051025;28;20468;-66
2021/11/15 15:33:10;;;;;;;2.15;0.32;;;;;;;;;;5063217;28;20021;-68
2021/11/15 15:35:36;;;;;;;2.58;0.63;;;;;;;;;;5058269;28;20020;-68
2021/11/15 15:38:02;;;;;;;2.55;0.55;;;;;;;;;;5058010;28;20021;-66
2021/11/15 15:40:28;;;;;;;1.40;0.52;;;;;;;;;;5046339;28;20074;-69
2021/11/15 15:42:58;;;;;;;2.90;0.40;;;;;;;;;;5045752;28;20035;-67